sensor_id;sensor_type;location;lat;lon;timestamp;pressure;altitude;pressure_sealevel;temperature;humidity
54806;BME280;62866;55.776;37.496;2022-12-29T00:01:37;99569.03;;;-0.03;100.00
54806;BME280;62866;55.776;37.496;2022-12-29T00:04:04;99576.78;;;-0.02;100.00
54806;BME280;62866;55.776;37.496;2022-12-29T00:06:31;99572.41;;;-0.12;100.00
54806;BME280;62866;55.776;37.496;2022-12-29T00:08:56;99569.66;;;-0.11;100.00
54806;BME280;62866;55.776;37.496;2022-12-29T00:11:24;99570.22;;;-0.07;100.00
54806;BME280;62866;55.776;37.496;2022-12-29T00:13:51;99571.97;;;-0.17;100.00
54806;BME280;62866;55.776;37.496;2022-12-29T00:16:36;99580.66;;;-0.17;100.00
54806;BME280;62866;55.776;37.496;2022-12-29T00:19:03;99579.84;;;-0.17;100.00
54806;BME280;62866;55.776;37.496;2022-12-29T00:21:29;99582.31;;;-0.16;100.00
54806;BME280;62866;55.776;37.496;2022-12-29T00:24:16;99568.22;;;-0.15;100.00
54806;BME280;62866;55.776;37.496;2022-12-29T00:29:48;99594.13;;;-0.10;100.00
54806;BME280;62866;55.776;37.496;2022-12-29T00:32:32;99594.38;;;-0.13;100.00
54806;BME280;62866;55.776;37.496;2022-12-29T00:35:38;99590.59;;;-0.20;100.00
54806;BME280;62866;55.776;37.496;2022-12-29T00:38:07;99590.72;;;-0.22;100.00
54806;BME280;62866;55.776;37.496;2022-12-29T00:40:51;99589.91;;;-0.33;100.00
54806;BME280;62866;55.776;37.496;2022-12-29T00:43:35;99591.66;;;-0.23;100.00
54806;BME280;62866;55.776;37.496;2022-12-29T00:46:19;99602.88;;;-0.21;100.00
54806;BME280;62866;55.776;37.496;2022-12-29T00:48:44;99605.00;;;-0.15;100.00
54806;BME280;62866;55.776;37.496;2022-12-29T00:51:28;99601.53;;;-0.15;100.00
54806;BME280;62866;55.776;37.496;2022-12-29T00:53:54;99595.44;;;-0.16;100.00
54806;BME280;62866;55.776;37.496;2022-12-29T00:56:19;99605.97;;;-0.16;100.00
54806;BME280;62866;55.776;37.496;2022-12-29T00:58:45;99606.13;;;-0.17;100.00
54806;BME280;62866;55.776;37.496;2022-12-29T01:01:10;99600.50;;;-0.24;100.00
54806;BME280;62866;55.776;37.496;2022-12-29T01:03:37;99597.66;;;-0.32;100.00
54806;BME280;62866;55.776;37.496;2022-12-29T01:06:08;99586.81;;;-0.39;100.00
54806;BME280;62866;55.776;37.496;2022-12-29T01:08:34;99615.06;;;-0.20;100.00
54806;BME280;62866;55.776;37.496;2022-12-29T01:11:06;99607.31;;;-0.21;100.00
54806;BME280;62866;55.776;37.496;2022-12-29T01:13:32;99613.78;;;-0.25;100.00
54806;BME280;62866;55.776;37.496;2022-12-29T01:15:58;99609.06;;;-0.43;100.00
54806;BME280;62866;55.776;37.496;2022-12-29T01:18:25;99602.13;;;-0.44;100.00
54806;BME280;62866;55.776;37.496;2022-12-29T01:20:59;99616.44;;;-0.36;100.00
54806;BME280;62866;55.776;37.496;2022-12-29T01:23:25;99628.94;;;-0.29;100.00
54806;BME280;62866;55.776;37.496;2022-12-29T01:25:50;99627.16;;;-0.28;100.00
54806;BME280;62866;55.776;37.496;2022-12-29T01:28:16;99619.03;;;-0.25;100.00
54806;BME280;62866;55.776;37.496;2022-12-29T01:30:41;99620.34;;;-0.31;100.00
54806;BME280;62866;55.776;37.496;2022-12-29T01:33:07;99623.34;;;-0.35;100.00
54806;BME280;62866;55.776;37.496;2022-12-29T01:35:32;99629.69;;;-0.38;100.00
54806;BME280;62866;55.776;37.496;2022-12-29T01:37:58;99632.19;;;-0.36;100.00
54806;BME280;62866;55.776;37.496;2022-12-29T01:40:24;99631.69;;;-0.30;100.00
54806;BME280;62866;55.776;37.496;2022-12-29T01:42:49;99624.44;;;-0.38;100.00
54806;BME280;62866;55.776;37.496;2022-12-29T01:45:16;99623.13;;;-0.44;100.00
54806;BME280;62866;55.776;37.496;2022-12-29T01:48:00;99626.13;;;-0.48;100.00
54806;BME280;62866;55.776;37.496;2022-12-29T01:50:36;99601.22;;;-0.65;100.00
54806;BME280;62866;55.776;37.496;2022-12-29T01:53:11;99622.19;;;-0.54;100.00
54806;BME280;62866;55.776;37.496;2022-12-29T01:55:40;99636.28;;;-0.55;100.00
54806;BME280;62866;55.776;37.496;2022-12-29T01:58:08;99641.31;;;-0.63;100.00
54806;BME280;62866;55.776;37.496;2022-12-29T02:00:37;99639.63;;;-0.64;100.00
54806;BME280;62866;55.776;37.496;2022-12-29T02:03:03;99636.50;;;-0.58;100.00
54806;BME280;62866;55.776;37.496;2022-12-29T02:08:20;99629.03;;;-0.62;100.00
54806;BME280;62866;55.776;37.496;2022-12-29T02:10:47;99622.09;;;-0.63;100.00
54806;BME280;62866;55.776;37.496;2022-12-29T02:13:17;99638.69;;;-0.63;100.00
54806;BME280;62866;55.776;37.496;2022-12-29T02:16:05;99628.78;;;-0.82;100.00
54806;BME280;62866;55.776;37.496;2022-12-29T02:21:46;99636.22;;;-0.75;100.00
54806;BME280;62866;55.776;37.496;2022-12-29T02:27:43;99630.13;;;-0.87;100.00
54806;BME280;62866;55.776;37.496;2022-12-29T02:41:04;99649.31;;;-0.98;100.00
54806;BME280;62866;55.776;37.496;2022-12-29T02:48:45;99660.06;;;-0.90;100.00
54806;BME280;62866;55.776;37.496;2022-12-29T02:51:27;99647.53;;;-0.97;100.00
54806;BME280;62866;55.776;37.496;2022-12-29T02:53:56;99669.59;;;-0.89;100.00
54806;BME280;62866;55.776;37.496;2022-12-29T02:56:40;99655.41;;;-0.97;100.00
54806;BME280;62866;55.776;37.496;2022-12-29T02:59:06;99652.78;;;-0.97;100.00
54806;BME280;62866;55.776;37.496;2022-12-29T03:04:43;99665.56;;;-0.93;100.00
54806;BME280;62866;55.776;37.496;2022-12-29T03:07:24;99662.06;;;-1.04;100.00
54806;BME280;62866;55.776;37.496;2022-12-29T03:13:04;99664.56;;;-1.14;100.00
54806;BME280;62866;55.776;37.496;2022-12-29T03:15:56;99667.31;;;-1.04;100.00
54806;BME280;62866;55.776;37.496;2022-12-29T03:23:43;99658.63;;;-1.05;100.00
54806;BME280;62866;55.776;37.496;2022-12-29T03:26:14;99675.19;;;-1.04;100.00
54806;BME280;62866;55.776;37.496;2022-12-29T03:29:07;99647.53;;;-1.20;100.00
54806;BME280;62866;55.776;37.496;2022-12-29T03:31:35;99676.50;;;-1.10;100.00
54806;BME280;62866;55.776;37.496;2022-12-29T03:34:03;99682.34;;;-1.06;100.00
54806;BME280;62866;55.776;37.496;2022-12-29T03:36:39;99682.59;;;-0.98;100.00
54806;BME280;62866;55.776;37.496;2022-12-29T03:39:09;99676.38;;;-1.08;100.00
54806;BME280;62866;55.776;37.496;2022-12-29T03:41:38;99693.94;;;-1.09;100.00
54806;BME280;62866;55.776;37.496;2022-12-29T03:44:06;99680.19;;;-1.12;100.00
54806;BME280;62866;55.776;37.496;2022-12-29T03:46:32;99692.84;;;-1.06;100.00
54806;BME280;62866;55.776;37.496;2022-12-29T03:48:58;99695.56;;;-1.08;100.00
54806;BME280;62866;55.776;37.496;2022-12-29T03:51:23;99691.63;;;-1.13;100.00
54806;BME280;62866;55.776;37.496;2022-12-29T03:53:49;99708.59;;;-1.18;100.00
54806;BME280;62866;55.776;37.496;2022-12-29T03:56:14;99692.00;;;-1.18;100.00
54806;BME280;62866;55.776;37.496;2022-12-29T03:58:40;99704.28;;;-1.19;100.00
54806;BME280;62866;55.776;37.496;2022-12-29T04:01:06;99703.78;;;-1.24;100.00
54806;BME280;62866;55.776;37.496;2022-12-29T04:03:31;99709.03;;;-1.24;100.00
54806;BME280;62866;55.776;37.496;2022-12-29T04:05:57;99710.34;;;-1.29;100.00
54806;BME280;62866;55.776;37.496;2022-12-29T04:08:22;99711.13;;;-1.40;100.00
54806;BME280;62866;55.776;37.496;2022-12-29T04:10:49;99719.47;;;-1.46;100.00
54806;BME280;62866;55.776;37.496;2022-12-29T04:13:15;99722.69;;;-1.42;100.00
54806;BME280;62866;55.776;37.496;2022-12-29T04:15:41;99711.59;;;-1.46;100.00
54806;BME280;62866;55.776;37.496;2022-12-29T04:18:07;99711.38;;;-1.43;100.00
54806;BME280;62866;55.776;37.496;2022-12-29T04:20:33;99715.63;;;-1.42;100.00
54806;BME280;62866;55.776;37.496;2022-12-29T04:23:17;99701.09;;;-1.46;100.00
54806;BME280;62866;55.776;37.496;2022-12-29T04:25:45;99705.63;;;-1.48;100.00
54806;BME280;62866;55.776;37.496;2022-12-29T04:28:15;99721.97;;;-1.44;100.00
54806;BME280;62866;55.776;37.496;2022-12-29T04:30:41;99717.47;;;-1.42;100.00
54806;BME280;62866;55.776;37.496;2022-12-29T04:33:07;99721.03;;;-1.43;100.00
54806;BME280;62866;55.776;37.496;2022-12-29T04:35:32;99715.31;;;-1.37;100.00
54806;BME280;62866;55.776;37.496;2022-12-29T04:37:58;99716.63;;;-1.32;100.00
54806;BME280;62866;55.776;37.496;2022-12-29T04:40:24;99704.59;;;-1.34;100.00
54806;BME280;62866;55.776;37.496;2022-12-29T04:42:50;99715.34;;;-1.26;100.00
54806;BME280;62866;55.776;37.496;2022-12-29T04:45:16;99712.94;;;-1.29;100.00
54806;BME280;62866;55.776;37.496;2022-12-29T04:47:41;99719.50;;;-1.24;100.00
54806;BME280;62866;55.776;37.496;2022-12-29T04:50:07;99731.31;;;-1.29;100.00
54806;BME280;62866;55.776;37.496;2022-12-29T04:52:33;99733.81;;;-1.28;100.00
54806;BME280;62866;55.776;37.496;2022-12-29T04:54:59;99716.25;;;-1.38;100.00
54806;BME280;62866;55.776;37.496;2022-12-29T04:57:25;99727.50;;;-1.25;100.00
54806;BME280;62866;55.776;37.496;2022-12-29T04:59:50;99721.50;;;-1.38;100.00
54806;BME280;62866;55.776;37.496;2022-12-29T05:02:16;99720.78;;;-1.40;100.00
54806;BME280;62866;55.776;37.496;2022-12-29T05:04:42;99728.47;;;-1.50;100.00
54806;BME280;62866;55.776;37.496;2022-12-29T05:07:08;99728.72;;;-1.53;100.00
54806;BME280;62866;55.776;37.496;2022-12-29T05:09:33;99735.03;;;-1.56;100.00
54806;BME280;62866;55.776;37.496;2022-12-29T05:11:59;99739.00;;;-1.74;100.00
54806;BME280;62866;55.776;37.496;2022-12-29T05:14:25;99743.22;;;-1.84;100.00
54806;BME280;62866;55.776;37.496;2022-12-29T05:16:50;99751.03;;;-1.95;100.00
54806;BME280;62866;55.776;37.496;2022-12-29T05:19:16;99753.56;;;-1.94;100.00
54806;BME280;62866;55.776;37.496;2022-12-29T05:21:42;99753.00;;;-1.86;100.00
54806;BME280;62866;55.776;37.496;2022-12-29T05:24:07;99756.47;;;-1.85;100.00
54806;BME280;62866;55.776;37.496;2022-12-29T05:26:33;99767.44;;;-1.80;100.00
54806;BME280;62866;55.776;37.496;2022-12-29T05:28:59;99764.09;;;-1.82;100.00
54806;BME280;62866;55.776;37.496;2022-12-29T05:31:25;99753.00;;;-1.86;100.00
54806;BME280;62866;55.776;37.496;2022-12-29T05:33:51;99754.22;;;-1.79;100.00
54806;BME280;62866;55.776;37.496;2022-12-29T05:36:16;99770.06;;;-1.80;100.00
54806;BME280;62866;55.776;37.496;2022-12-29T05:38:42;99773.72;;;-1.83;100.00
54806;BME280;62866;55.776;37.496;2022-12-29T05:41:08;99766.22;;;-1.87;100.00
54806;BME280;62866;55.776;37.496;2022-12-29T05:43:34;99768.28;;;-1.80;100.00
54806;BME280;62866;55.776;37.496;2022-12-29T05:46:00;99768.47;;;-1.70;100.00
54806;BME280;62866;55.776;37.496;2022-12-29T05:48:25;99763.94;;;-1.68;100.00
54806;BME280;62866;55.776;37.496;2022-12-29T05:50:51;99762.53;;;-1.61;100.00
54806;BME280;62866;55.776;37.496;2022-12-29T05:53:17;99757.63;;;-1.66;100.00
54806;BME280;62866;55.776;37.496;2022-12-29T05:55:45;99763.97;;;-1.57;100.00
54806;BME280;62866;55.776;37.496;2022-12-29T05:58:11;99773.31;;;-1.53;100.00
54806;BME280;62866;55.776;37.496;2022-12-29T06:00:37;99770.69;;;-1.53;100.00
54806;BME280;62866;55.776;37.496;2022-12-29T06:03:03;99782.78;;;-1.63;100.00
54806;BME280;62866;55.776;37.496;2022-12-29T06:05:29;99761.63;;;-1.73;100.00
54806;BME280;62866;55.776;37.496;2022-12-29T06:07:55;99772.50;;;-1.66;100.00
54806;BME280;62866;55.776;37.496;2022-12-29T06:10:20;99772.28;;;-1.63;100.00
54806;BME280;62866;55.776;37.496;2022-12-29T06:12:46;99771.00;;;-1.58;100.00
54806;BME280;62866;55.776;37.496;2022-12-29T06:15:12;99766.66;;;-1.70;100.00
54806;BME280;62866;55.776;37.496;2022-12-29T06:17:38;99770.34;;;-1.72;100.00
54806;BME280;62866;55.776;37.496;2022-12-29T06:20:04;99776.03;;;-1.55;100.00
54806;BME280;62866;55.776;37.496;2022-12-29T06:22:30;99769.50;;;-1.49;100.00
54806;BME280;62866;55.776;37.496;2022-12-29T06:24:55;99774.31;;;-1.43;100.00
54806;BME280;62866;55.776;37.496;2022-12-29T06:27:21;99776.69;;;-1.40;100.00
54806;BME280;62866;55.776;37.496;2022-12-29T06:29:47;99778.75;;;-1.32;100.00
54806;BME280;62866;55.776;37.496;2022-12-29T06:32:12;99789.97;;;-1.30;100.00
54806;BME280;62866;55.776;37.496;2022-12-29T06:34:38;99791.53;;;-1.28;100.00
54806;BME280;62866;55.776;37.496;2022-12-29T06:37:04;99762.25;;;-1.45;100.00
54806;BME280;62866;55.776;37.496;2022-12-29T06:39:29;99786.03;;;-1.60;100.00
54806;BME280;62866;55.776;37.496;2022-12-29T06:41:55;99786.63;;;-1.56;100.00
54806;BME280;62866;55.776;37.496;2022-12-29T06:44:21;99794.16;;;-1.51;100.00
54806;BME280;62866;55.776;37.496;2022-12-29T06:46:47;99792.41;;;-1.40;100.00
54806;BME280;62866;55.776;37.496;2022-12-29T06:49:13;99794.47;;;-1.32;100.00
54806;BME280;62866;55.776;37.496;2022-12-29T06:51:39;99771.91;;;-1.46;100.00
54806;BME280;62866;55.776;37.496;2022-12-29T06:54:05;99787.69;;;-1.35;100.00
54806;BME280;62866;55.776;37.496;2022-12-29T06:56:30;99791.75;;;-1.31;100.00
54806;BME280;62866;55.776;37.496;2022-12-29T06:58:56;99795.00;;;-1.27;100.00
54806;BME280;62866;55.776;37.496;2022-12-29T07:01:22;99793.34;;;-1.17;100.00
54806;BME280;62866;55.776;37.496;2022-12-29T07:03:47;99783.81;;;-1.18;100.00
54806;BME280;62866;55.776;37.496;2022-12-29T07:06:13;99790.72;;;-1.17;100.00
54806;BME280;62866;55.776;37.496;2022-12-29T07:08:38;99781.88;;;-1.16;100.00
54806;BME280;62866;55.776;37.496;2022-12-29T07:11:05;99798.09;;;-1.22;100.00
54806;BME280;62866;55.776;37.496;2022-12-29T07:13:31;99780.16;;;-1.39;100.00
54806;BME280;62866;55.776;37.496;2022-12-29T07:15:56;99789.59;;;-1.37;100.00
54806;BME280;62866;55.776;37.496;2022-12-29T07:18:22;99795.00;;;-1.27;100.00
54806;BME280;62866;55.776;37.496;2022-12-29T07:20:47;99783.31;;;-1.23;100.00
54806;BME280;62866;55.776;37.496;2022-12-29T07:23:13;99800.09;;;-1.02;100.00
54806;BME280;62866;55.776;37.496;2022-12-29T07:25:39;99800.78;;;-1.11;100.00
54806;BME280;62866;55.776;37.496;2022-12-29T07:28:06;99798.72;;;-1.07;100.00
54806;BME280;62866;55.776;37.496;2022-12-29T07:30:32;99795.63;;;-1.12;100.00
54806;BME280;62866;55.776;37.496;2022-12-29T07:32:58;99791.22;;;-1.12;100.00
54806;BME280;62866;55.776;37.496;2022-12-29T07:35:23;99789.16;;;-1.20;100.00
54806;BME280;62866;55.776;37.496;2022-12-29T07:37:49;99781.88;;;-1.27;100.00
54806;BME280;62866;55.776;37.496;2022-12-29T07:40:15;99784.09;;;-1.10;100.00
54806;BME280;62866;55.776;37.496;2022-12-29T07:42:41;99785.88;;;-1.10;100.00
54806;BME280;62866;55.776;37.496;2022-12-29T07:45:07;99806.75;;;-0.98;100.00
54806;BME280;62866;55.776;37.496;2022-12-29T07:47:34;99808.81;;;-0.90;100.00
54806;BME280;62866;55.776;37.496;2022-12-29T07:50:00;99791.06;;;-0.87;100.00
54806;BME280;62866;55.776;37.496;2022-12-29T07:52:25;99803.97;;;-0.61;100.00
54806;BME280;62866;55.776;37.496;2022-12-29T07:54:51;99816.38;;;-0.63;100.00
54806;BME280;62866;55.776;37.496;2022-12-29T07:57:16;99812.03;;;-0.87;100.00
54806;BME280;62866;55.776;37.496;2022-12-29T07:59:42;99806.00;;;-0.76;100.00
54806;BME280;62866;55.776;37.496;2022-12-29T08:02:11;99814.94;;;-0.79;100.00
54806;BME280;62866;55.776;37.496;2022-12-29T08:04:37;99819.28;;;-1.01;100.00
54806;BME280;62866;55.776;37.496;2022-12-29T08:07:02;99815.63;;;-1.23;100.00
54806;BME280;62866;55.776;37.496;2022-12-29T08:09:28;99826.22;;;-1.24;100.00
54806;BME280;62866;55.776;37.496;2022-12-29T08:11:54;99810.22;;;-1.32;100.00
54806;BME280;62866;55.776;37.496;2022-12-29T08:14:19;99823.88;;;-1.16;100.00
54806;BME280;62866;55.776;37.496;2022-12-29T08:16:45;99833.63;;;-0.83;100.00
54806;BME280;62866;55.776;37.496;2022-12-29T08:19:12;99820.22;;;-0.67;100.00
54806;BME280;62866;55.776;37.496;2022-12-29T08:21:38;99819.88;;;-0.41;100.00
54806;BME280;62866;55.776;37.496;2022-12-29T08:24:03;99819.66;;;-0.38;100.00
54806;BME280;62866;55.776;37.496;2022-12-29T08:26:29;99824.97;;;-0.50;100.00
54806;BME280;62866;55.776;37.496;2022-12-29T08:28:55;99822.69;;;-0.66;100.00
54806;BME280;62866;55.776;37.496;2022-12-29T08:31:22;99827.13;;;-0.55;100.00
54806;BME280;62866;55.776;37.496;2022-12-29T08:33:48;99828.00;;;-0.44;100.00
54806;BME280;62866;55.776;37.496;2022-12-29T08:36:13;99828.81;;;-0.32;100.00
54806;BME280;62866;55.776;37.496;2022-12-29T08:38:39;99824.31;;;-0.30;100.00
54806;BME280;62866;55.776;37.496;2022-12-29T08:41:05;99825.72;;;-0.37;100.00
54806;BME280;62866;55.776;37.496;2022-12-29T08:43:30;99820.97;;;-0.43;100.00
54806;BME280;62866;55.776;37.496;2022-12-29T08:45:59;99823.94;;;-0.36;100.00
54806;BME280;62866;55.776;37.496;2022-12-29T08:48:26;99825.38;;;-0.32;100.00
54806;BME280;62866;55.776;37.496;2022-12-29T08:50:52;99813.19;;;-0.45;100.00
54806;BME280;62866;55.776;37.496;2022-12-29T08:53:18;99816.19;;;-0.38;100.00
54806;BME280;62866;55.776;37.496;2022-12-29T08:55:47;99811.88;;;-0.39;100.00
54806;BME280;62866;55.776;37.496;2022-12-29T08:58:13;99807.84;;;-0.43;100.00
54806;BME280;62866;55.776;37.496;2022-12-29T09:00:41;99830.03;;;-0.36;100.00
54806;BME280;62866;55.776;37.496;2022-12-29T09:03:06;99816.84;;;-0.58;100.00
54806;BME280;62866;55.776;37.496;2022-12-29T09:05:32;99826.41;;;-0.57;100.00
54806;BME280;62866;55.776;37.496;2022-12-29T09:07:57;99835.03;;;-0.55;100.00
54806;BME280;62866;55.776;37.496;2022-12-29T09:10:23;99840.38;;;-0.57;100.00
54806;BME280;62866;55.776;37.496;2022-12-29T09:12:49;99840.53;;;-0.47;100.00
54806;BME280;62866;55.776;37.496;2022-12-29T09:15:14;99824.13;;;-0.73;100.00
54806;BME280;62866;55.776;37.496;2022-12-29T09:17:41;99832.75;;;-0.60;100.00
54806;BME280;62866;55.776;37.496;2022-12-29T09:20:14;99819.38;;;-0.57;100.00
54806;BME280;62866;55.776;37.496;2022-12-29T09:22:40;99824.75;;;-0.47;100.00
54806;BME280;62866;55.776;37.496;2022-12-29T09:25:06;99830.03;;;-0.36;100.00
54806;BME280;62866;55.776;37.496;2022-12-29T09:27:35;99818.22;;;-0.30;100.00
54806;BME280;62866;55.776;37.496;2022-12-29T09:30:05;99808.66;;;-0.31;100.00
54806;BME280;62866;55.776;37.496;2022-12-29T09:32:32;99819.53;;;-0.14;100.00
54806;BME280;62866;55.776;37.496;2022-12-29T09:34:57;99823.00;;;-0.35;100.00
54806;BME280;62866;55.776;37.496;2022-12-29T09:37:23;99833.34;;;-0.56;100.00
54806;BME280;62866;55.776;37.496;2022-12-29T09:39:51;99830.00;;;-0.47;100.00
54806;BME280;62866;55.776;37.496;2022-12-29T09:42:27;99815.31;;;-0.50;100.00
54806;BME280;62866;55.776;37.496;2022-12-29T09:47:32;99825.03;;;-0.28;100.00
54806;BME280;62866;55.776;37.496;2022-12-29T09:50:05;99822.38;;;-0.06;100.00
54806;BME280;62866;55.776;37.496;2022-12-29T09:52:40;99841.41;;;-0.02;100.00
54806;BME280;62866;55.776;37.496;2022-12-29T09:55:15;99825.50;;;-0.12;100.00
54806;BME280;62866;55.776;37.496;2022-12-29T09:57:56;99833.16;;;-0.09;100.00
54806;BME280;62866;55.776;37.496;2022-12-29T10:00:37;99816.53;;;-0.20;100.00
54806;BME280;62866;55.776;37.496;2022-12-29T10:03:22;99833.38;;;-0.23;100.00
54806;BME280;62866;55.776;37.496;2022-12-29T10:06:11;99808.31;;;-0.27;100.00
54806;BME280;62866;55.776;37.496;2022-12-29T10:11:44;99829.78;;;-0.33;100.00
54806;BME280;62866;55.776;37.496;2022-12-29T10:14:57;99828.13;;;-0.12;100.00
54806;BME280;62866;55.776;37.496;2022-12-29T10:23:31;99823.34;;;-0.18;100.00
54806;BME280;62866;55.776;37.496;2022-12-29T10:25:59;99829.19;;;-0.14;100.00
54806;BME280;62866;55.776;37.496;2022-12-29T10:28:34;99816.19;;;-0.05;100.00
54806;BME280;62866;55.776;37.496;2022-12-29T10:31:04;99828.00;;;-0.21;100.00
54806;BME280;62866;55.776;37.496;2022-12-29T10:33:37;99816.31;;;-0.28;100.00
54806;BME280;62866;55.776;37.496;2022-12-29T10:36:34;99823.81;;;-0.24;100.00
54806;BME280;62866;55.776;37.496;2022-12-29T10:39:25;99820.13;;;-0.32;100.00
54806;BME280;62866;55.776;37.496;2022-12-29T10:44:41;99831.22;;;-0.40;100.00
54806;BME280;62866;55.776;37.496;2022-12-29T10:47:15;99827.75;;;-0.41;100.00
54806;BME280;62866;55.776;37.496;2022-12-29T10:49:43;99800.84;;;-0.66;100.00
54806;BME280;62866;55.776;37.496;2022-12-29T10:52:11;99818.41;;;-0.56;100.00
54806;BME280;62866;55.776;37.496;2022-12-29T10:55:02;99816.59;;;-0.66;100.00
54806;BME280;62866;55.776;37.496;2022-12-29T10:57:39;99829.38;;;-0.73;100.00
54806;BME280;62866;55.776;37.496;2022-12-29T11:00:14;99815.97;;;-0.92;100.00
54806;BME280;62866;55.776;37.496;2022-12-29T11:08:01;99804.53;;;-0.80;100.00
54806;BME280;62866;55.776;37.496;2022-12-29T11:10:42;99808.72;;;-0.66;100.00
54806;BME280;62866;55.776;37.496;2022-12-29T11:13:47;99802.38;;;-0.75;100.00
54806;BME280;62866;55.776;37.496;2022-12-29T11:16:13;99806.69;;;-0.74;100.00
54806;BME280;62866;55.776;37.496;2022-12-29T11:18:40;99798.47;;;-0.69;100.00
54806;BME280;62866;55.776;37.496;2022-12-29T11:24:17;99796.50;;;-0.44;100.00
54806;BME280;62866;55.776;37.496;2022-12-29T11:26:44;99791.13;;;-0.42;100.00
54806;BME280;62866;55.776;37.496;2022-12-29T11:32:10;99808.19;;;-0.59;98.53
54806;BME280;62866;55.776;37.496;2022-12-29T11:34:35;99805.03;;;-0.64;98.61
54806;BME280;62866;55.776;37.496;2022-12-29T11:37:04;99798.59;;;-0.71;98.10
54806;BME280;62866;55.776;37.496;2022-12-29T11:42:18;99756.75;;;-1.07;96.68
54806;BME280;62866;55.776;37.496;2022-12-29T11:44:47;99801.28;;;-0.95;96.85
54806;BME280;62866;55.776;37.496;2022-12-29T11:47:30;99801.03;;;-0.92;97.34
54806;BME280;62866;55.776;37.496;2022-12-29T11:50:03;99775.84;;;-1.05;98.26
54806;BME280;62866;55.776;37.496;2022-12-29T11:52:33;99811.31;;;-0.89;98.42
54806;BME280;62866;55.776;37.496;2022-12-29T11:55:02;99825.91;;;-0.85;99.16
54806;BME280;62866;55.776;37.496;2022-12-29T11:57:28;99810.25;;;-0.86;99.48
54806;BME280;62866;55.776;37.496;2022-12-29T11:59:57;99817.19;;;-0.85;100.00
54806;BME280;62866;55.776;37.496;2022-12-29T12:02:42;99828.06;;;-0.79;100.00
54806;BME280;62866;55.776;37.496;2022-12-29T12:05:14;99828.31;;;-0.70;100.00
54806;BME280;62866;55.776;37.496;2022-12-29T12:07:44;99824.47;;;-0.66;100.00
54806;BME280;62866;55.776;37.496;2022-12-29T12:10:19;99825.34;;;-0.55;100.00
54806;BME280;62866;55.776;37.496;2022-12-29T12:12:59;99842.41;;;-0.49;100.00
54806;BME280;62866;55.776;37.496;2022-12-29T12:15:36;99836.09;;;-0.47;100.00
54806;BME280;62866;55.776;37.496;2022-12-29T12:21:25;99819.41;;;-0.34;100.00
54806;BME280;62866;55.776;37.496;2022-12-29T12:29:20;99822.13;;;-0.25;100.00
54806;BME280;62866;55.776;37.496;2022-12-29T12:32:01;99821.91;;;-0.22;100.00
54806;BME280;62866;55.776;37.496;2022-12-29T12:34:37;99829.22;;;-0.25;100.00
54806;BME280;62866;55.776;37.496;2022-12-29T12:37:22;99825.38;;;-0.32;100.00
54806;BME280;62866;55.776;37.496;2022-12-29T12:40:06;99830.16;;;-0.38;100.00
54806;BME280;62866;55.776;37.496;2022-12-29T12:43:05;99820.47;;;-0.48;100.00
54806;BME280;62866;55.776;37.496;2022-12-29T12:45:45;99820.47;;;-0.48;100.00
54806;BME280;62866;55.776;37.496;2022-12-29T12:57:41;99813.78;;;-0.52;100.00
54806;BME280;62866;55.776;37.496;2022-12-29T13:00:16;99815.56;;;-0.53;100.00
54806;BME280;62866;55.776;37.496;2022-12-29T13:02:59;99820.47;;;-0.59;100.00
54806;BME280;62866;55.776;37.496;2022-12-29T13:05:47;99816.03;;;-0.70;100.00
54806;BME280;62866;55.776;37.496;2022-12-29T13:27:28;99839.03;;;-0.85;100.00
54806;BME280;62866;55.776;37.496;2022-12-29T13:30:05;99823.84;;;-0.92;99.13
54806;BME280;62866;55.776;37.496;2022-12-29T13:32:55;99821.78;;;-1.00;98.19
54806;BME280;62866;55.776;37.496;2022-12-29T13:38:22;99825.25;;;-0.99;98.44
54806;BME280;62866;55.776;37.496;2022-12-29T13:41:29;99819.78;;;-0.96;99.30
54806;BME280;62866;55.776;37.496;2022-12-29T13:43:57;99827.91;;;-0.88;100.00
54806;BME280;62866;55.776;37.496;2022-12-29T13:46:27;99816.34;;;-0.86;100.00
54806;BME280;62866;55.776;37.496;2022-12-29T13:49:01;99820.41;;;-0.82;100.00
54806;BME280;62866;55.776;37.496;2022-12-29T13:51:29;99814.09;;;-0.79;100.00
54806;BME280;62866;55.776;37.496;2022-12-29T13:57:02;99814.34;;;-0.71;100.00
54806;BME280;62866;55.776;37.496;2022-12-29T13:59:57;99811.94;;;-0.74;100.00
54806;BME280;62866;55.776;37.496;2022-12-29T14:02:26;99808.38;;;-0.73;100.00
54806;BME280;62866;55.776;37.496;2022-12-29T14:05:03;99809.06;;;-0.82;99.89
54806;BME280;62866;55.776;37.496;2022-12-29T14:07:36;99813.88;;;-0.76;100.00
54806;BME280;62866;55.776;37.496;2022-12-29T14:10:03;99822.00;;;-0.68;100.00
54806;BME280;62866;55.776;37.496;2022-12-29T14:12:42;99811.72;;;-0.71;99.93
54806;BME280;62866;55.776;37.496;2022-12-29T14:17:34;99820.78;;;-0.75;98.98
54806;BME280;62866;55.776;37.496;2022-12-29T14:19:59;99809.47;;;-0.75;99.01
54806;BME280;62866;55.776;37.496;2022-12-29T14:22:27;99815.19;;;-0.70;99.66
54806;BME280;62866;55.776;37.496;2022-12-29T14:24:53;99818.16;;;-0.64;100.00
54806;BME280;62866;55.776;37.496;2022-12-29T14:29:46;99810.06;;;-0.50;100.00
54806;BME280;62866;55.776;37.496;2022-12-29T14:32:35;99816.28;;;-0.40;100.00
54806;BME280;62866;55.776;37.496;2022-12-29T14:38:23;99809.00;;;-0.25;100.00
54806;BME280;62866;55.776;37.496;2022-12-29T14:40:49;99805.81;;;-0.17;100.00
54806;BME280;62866;55.776;37.496;2022-12-29T14:43:24;99807.94;;;-0.11;100.00
54806;BME280;62866;55.776;37.496;2022-12-29T14:46:01;99794.91;;;-0.13;100.00
54806;BME280;62866;55.776;37.496;2022-12-29T14:48:31;99810.09;;;-0.05;100.00
54806;BME280;62866;55.776;37.496;2022-12-29T14:50:58;99813.53;;;-0.05;100.00
54806;BME280;62866;55.776;37.496;2022-12-29T14:53:51;99803.41;;;-0.09;100.00
54806;BME280;62866;55.776;37.496;2022-12-29T14:56:18;99803.41;;;-0.09;100.00